Time,TemperatureF,DewpointF,PressureIn,WindDirection,WindDirectionDegrees,WindSpeedMPH,WindSpeedGustMPH,Humidity,HourlyPrecipIn,Conditions,Clouds,dailyrainin,SolarRadiationWatts/m^2,SoftwareType,DateUTC
2013-04-25 00:11:00,57.0,27.0,-100.00,ENE,61,4.0,10.0,32,-99.99,,,0.00,0.000000,,2013-04-25 07:11:00,
2013-04-25 01:11:00,54.0,27.0,-100.00,WNW,303,4.0,6.0,35,-99.99,,,0.00,0.000000,,2013-04-25 08:11:00,
2013-04-25 02:11:00,50.0,32.0,-100.00,WNW,285,4.0,7.0,48,-99.99,,,0.00,0.000000,,2013-04-25 09:11:00,
2013-04-25 03:12:00,47.0,33.0,-100.00,NE,56,2.0,4.0,57,-99.99,,,0.00,0.000000,,2013-04-25 10:12:00,
2013-04-25 04:12:00,45.0,33.0,-100.00,ENE,59,3.0,5.0,62,-99.99,,,0.00,0.000000,,2013-04-25 11:12:00,
2013-04-25 05:12:00,43.0,34.0,-100.00,ESE,108,1.0,3.0,67,-99.99,,,0.00,0.000000,,2013-04-25 12:12:00,
2013-04-25 06:11:00,42.0,33.0,-100.00,NE,40,1.0,3.0,69,-99.99,,,0.00,0.120000,,2013-04-25 13:11:00,
2013-04-25 07:11:00,41.0,33.0,-100.00,North,351,1.0,2.0,73,-99.99,,,-99.99,20.340000,,2013-04-25 14:11:00,
2013-04-25 08:11:00,45.0,34.0,-100.00,West,268,1.0,3.0,66,-99.99,,,0.00,178.860001,,2013-04-25 15:11:00,
2013-04-25 09:13:00,46.0,35.0,-100.00,ENE,78,5.0,10.0,64,-99.99,,,0.00,364.929993,,2013-04-25 16:13:00,
2013-04-25 10:11:00,49.0,35.0,-100.00,ENE,78,5.0,8.0,57,-99.99,,,0.00,541.469971,,2013-04-25 17:11:00,
2013-04-25 12:12:00,57.0,37.0,-100.00,ENE,71,2.0,4.0,47,-99.99,,,0.00,785.650024,,2013-04-25 19:12:00,
2013-04-25 13:11:00,60.0,39.0,-100.00,East,96,3.0,5.0,46,-99.99,,,0.00,848.409973,,2013-04-25 20:11:00,
2013-04-25 14:11:00,68.0,31.0,-100.00,WSW,252,4.0,9.0,24,-99.99,,,0.00,900.710022,,2013-04-25 21:11:00,
2013-04-25 15:12:00,71.0,29.0,-100.00,West,264,6.0,9.0,20,-99.99,,,0.00,853.049988,,2013-04-25 22:12:00,
2013-04-25 16:12:00,73.0,25.0,-100.00,WSW,254,6.0,14.0,16,-99.99,,,0.00,773.210022,,2013-04-25 23:12:00,
2013-04-25 17:11:00,74.0,26.0,-100.00,WSW,253,5.0,10.0,17,-99.99,,,0.00,634.330017,,2013-04-26 00:11:00,
2013-04-25 18:11:00,75.0,26.0,-100.00,WNW,289,4.0,9.0,16,-99.99,,,0.00,467.899994,,2013-04-26 01:11:00,
2013-04-25 19:11:00,75.0,29.0,-100.00,West,279,4.0,7.0,18,-99.99,,,0.00,277.299988,,2013-04-26 02:11:00,
2013-04-25 20:11:00,72.0,34.0,-100.00,SSW,203,2.0,4.0,25,-99.99,,,0.00,92.860001,,2013-04-26 03:11:00,
2013-04-25 21:12:00,67.0,37.0,-100.00,West,272,6.0,12.0,32,-99.99,,,0.00,1.740000,,2013-04-26 04:12:00,
2013-04-25 22:12:00,65.0,35.0,-100.00,NW,318,5.0,8.0,32,-99.99,,,0.00,0.000000,,2013-04-26 05:12:00,
2013-04-25 23:11:00,63.0,35.0,-100.00,WNW,298,6.0,14.0,34,-99.99,,,0.00,0.000000,,2013-04-26 06:11:00,